Bookmark and Share
Track history (hours):
 

Callsign IVPQ (name unknown)

Last reported at 2012-Aug-03 13:30 UTC. Time now 2014-Apr-20 16:05 UTC.
Position N 40°49' E 014°07'.
Warning: this ship's position is years out of date!

NotesDate/timePositionNaut miles runAvg speedWind from/ knotsBaromVisibWave heightAir tempDewpointWater temp
2012-Aug-03 13:30N 40°49' E 014°07'  
2012-Jul-29 17:31N 40°46' E 014°02'4 3.8
2012-Jul-29 16:33N 40°47' E 014°06'1 0.2
2012-Jul-29 10:37N 40°47' E 014°05'3 2.8
2012-Jul-29 09:33N 40°46' E 014°02'0 0.0
2012-Jul-29 07:33N 40°46' E 014°02'5 5.1
2012-Jul-29 06:29N 40°49' E 014°07'0 0.1
2012-Jul-29 05:33N 40°49' E 014°07'7 1.0
2012-Jul-28 22:33N 40°44' E 014°01'2 2.4
2012-Jul-28 21:33N 40°43' E 013°58'2 2.0
2012-Jul-28 20:33N 40°44' E 014°01'7 7.1
2012-Jul-28 19:33N 40°49' E 014°07'0 0.0
2012-Jul-28 18:34N 40°49' E 014°07'1 1.0
2012-Jul-28 17:34N 40°49' E 014°06'4 4.0
2012-Jul-28 16:34N 40°46' E 014°02'3 0.5
2012-Jul-28 10:36N 40°47' E 014°06'3 3.2
2012-Jul-28 09:33N 40°46' E 014°02'5 5.4
2012-Jul-28 08:33N 40°49' E 014°07'5 5.4
2012-Jul-28 07:33N 40°46' E 014°02'5 4.9
2012-Jul-28 06:33N 40°49' E 014°06'0 0.3
2012-Jul-28 05:32N 40°49' E 014°07'5 5.6
2012-Jul-28 04:37N 40°46' E 014°02'5 1.3
2012-Jul-28 00:33N 40°49' E 014°07'3 2.5
2012-Jul-27 23:33N 40°47' E 014°07'4 2.0
2012-Jul-27 21:33N 40°48' E 014°13'5 4.5
2012-Jul-27 20:24N 40°49' E 014°06'1 1.4
2012-Jul-27 19:34N 40°49' E 014°07'0 0.0
2012-Jul-27 18:32N 40°49' E 014°07'3 0.3
2012-Jul-27 10:36N 40°47' E 014°06'3 3.2
2012-Jul-27 09:33N 40°46' E 014°02'5 5.3
2012-Jul-27 08:32N 40°49' E 014°07'5 5.5
2012-Jul-27 07:33N 40°46' E 014°02'5 5.1
2012-Jul-27 06:33N 40°49' E 014°07'0 0.4
2012-Jul-27 05:33N 40°49' E 014°07'5 5.8
2012-Jul-27 04:37N 40°46' E 014°02'5 0.3
2012-Jul-26 11:33N 40°49' E 014°07'3 2.8
2012-Jul-26 10:37N 40°47' E 014°06'3 3.2
2012-Jul-26 09:33N 40°46' E 014°02'0 0.0
2012-Jul-26 07:33N 40°46' E 014°02'5 4.6
2012-Jul-26 06:33N 40°49' E 014°06'1 0.8
2012-Jul-26 05:32N 40°49' E 014°07'5 5.9
2012-Jul-26 04:37N 40°46' E 014°02'5 0.4
2012-Jul-25 13:33N 40°49' E 014°07'0 0.0
2012-Jul-25 12:33N 40°49' E 014°07'0 0.0
2012-Jul-25 11:34N 40°49' E 014°07'3 2.8
2012-Jul-25 10:37N 40°47' E 014°06'3 3.2
2012-Jul-25 09:33N 40°46' E 014°02'5 5.4
2012-Jul-25 08:33N 40°49' E 014°07'5 5.4
2012-Jul-25 07:34N 40°46' E 014°02'5 5.0
2012-Jul-25 06:33N 40°49' E 014°06'0 0.5
2012-Jul-25 05:33N 40°49' E 014°07'5 5.7
2012-Jul-25 04:37N 40°46' E 014°02'  

Dump ship's entire track history

sailing weather and tide predictions

Ship Status Report: callsign IVPQ